Time,TemperatureF,DewpointF,PressureIn,WindDirection,WindDirectionDegrees,WindSpeedMPH,WindSpeedGustMPH,Humidity,HourlyPrecipIn,Conditions,Clouds,dailyrainin,SoftwareType,DateUTC
2013-08-29 00:02:00,49.0,36.0,-100.00,NE,50,3.0,6.0,61,0.00,,,0.05,,2013-08-29 08:02:00,
2013-08-29 00:12:00,49.0,36.0,-100.00,NE,50,3.0,6.0,61,0.00,,,0.05,,2013-08-29 08:12:00,
2013-08-29 00:22:00,49.0,36.0,-100.00,ENE,65,3.0,6.0,61,0.00,,,0.05,,2013-08-29 08:22:00,
2013-08-29 00:32:00,49.0,36.0,-100.00,ENE,65,3.0,6.0,61,0.00,,,0.05,,2013-08-29 08:32:00,
2013-08-29 00:42:00,49.0,36.0,-100.00,ENE,65,3.0,6.0,61,0.00,,,0.05,,2013-08-29 08:42:00,
2013-08-29 00:52:00,48.0,36.0,-100.00,NE,40,4.0,7.0,61,0.00,,,0.05,,2013-08-29 08:52:00,
2013-08-29 01:01:00,48.0,36.0,-100.00,NE,40,4.0,7.0,61,0.00,,,0.05,,2013-08-29 09:01:00,
2013-08-29 01:12:00,48.0,36.0,-100.00,NE,40,4.0,7.0,61,0.00,,,0.05,,2013-08-29 09:12:00,
2013-08-29 01:21:00,48.0,36.0,-100.00,NE,55,6.0,9.0,61,0.00,,,0.05,,2013-08-29 09:21:00,
2013-08-29 01:34:00,48.0,36.0,-100.00,NE,55,6.0,9.0,61,0.00,,,0.05,,2013-08-29 09:34:00,
2013-08-29 01:43:00,48.0,36.0,-100.00,NE,55,6.0,9.0,61,0.00,,,0.05,,2013-08-29 09:43:00,
2013-08-29 01:54:00,48.0,36.0,-100.00,NE,50,9.0,12.0,61,0.00,,,0.05,,2013-08-29 09:54:00,
2013-08-29 02:06:00,48.0,36.0,-100.00,NE,50,9.0,12.0,61,0.00,,,0.05,,2013-08-29 10:06:00,
2013-08-29 02:14:00,48.0,36.0,-100.00,NE,50,9.0,12.0,61,0.00,,,0.05,,2013-08-29 10:14:00,
2013-08-29 02:24:00,48.0,36.0,-100.00,NE,50,9.0,13.0,62,0.00,,,0.05,,2013-08-29 10:24:00,
2013-08-29 02:33:00,48.0,36.0,-100.00,NE,50,9.0,13.0,62,0.00,,,0.05,,2013-08-29 10:33:00,
2013-08-29 02:43:00,48.0,36.0,-100.00,NE,50,9.0,13.0,62,0.00,,,0.05,,2013-08-29 10:43:00,
2013-08-29 02:53:00,48.0,36.0,-100.00,NE,55,10.0,16.0,61,0.00,,,0.05,,2013-08-29 10:53:00,
2013-08-29 03:03:00,48.0,36.0,-100.00,NE,55,10.0,16.0,61,0.00,,,0.05,,2013-08-29 11:03:00,
2013-08-29 03:12:00,48.0,36.0,-100.00,NE,55,10.0,16.0,61,0.00,,,0.05,,2013-08-29 11:12:00,
2013-08-29 03:22:00,49.0,36.0,-100.00,ENE,60,9.0,14.0,61,0.00,,,0.04,,2013-08-29 11:22:00,
2013-08-29 03:32:00,49.0,36.0,-100.00,ENE,60,9.0,14.0,61,0.00,,,0.04,,2013-08-29 11:32:00,
2013-08-29 03:42:00,49.0,36.0,-100.00,ENE,60,9.0,14.0,61,0.00,,,0.04,,2013-08-29 11:42:00,
2013-08-29 03:52:00,49.0,36.0,-100.00,NE,50,6.0,12.0,62,0.00,,,0.04,,2013-08-29 11:52:00,
2013-08-29 04:02:00,49.0,36.0,-100.00,NE,50,6.0,12.0,62,0.00,,,0.04,,2013-08-29 12:02:00,
2013-08-29 04:11:00,49.0,36.0,-100.00,NE,50,6.0,12.0,62,0.00,,,0.04,,2013-08-29 12:11:00,
2013-08-29 04:22:00,47.0,37.0,-100.00,NE,50,6.0,9.0,67,0.00,,,0.04,,2013-08-29 12:22:00,
2013-08-29 04:32:00,47.0,37.0,-100.00,NE,50,6.0,9.0,67,0.00,,,0.04,,2013-08-29 12:32:00,
2013-08-29 04:42:00,47.0,37.0,-100.00,NE,50,6.0,9.0,67,0.00,,,0.04,,2013-08-29 12:42:00,
2013-08-29 04:52:00,47.0,38.0,-100.00,NE,50,6.0,9.0,69,0.00,,,0.04,,2013-08-29 12:52:00,
2013-08-29 05:02:00,47.0,38.0,-100.00,NE,50,6.0,9.0,69,0.00,,,0.04,,2013-08-29 13:02:00,
2013-08-29 05:12:00,47.0,38.0,-100.00,NE,50,6.0,9.0,69,0.00,,,0.04,,2013-08-29 13:12:00,
2013-08-29 05:22:00,47.0,38.0,-100.00,NE,50,6.0,8.0,72,0.01,,,0.03,,2013-08-29 13:22:00,
2013-08-29 05:32:00,47.0,38.0,-100.00,NE,50,6.0,8.0,72,0.01,,,0.03,,2013-08-29 13:32:00,
2013-08-29 05:42:00,47.0,38.0,-100.00,NE,50,6.0,8.0,72,0.01,,,0.03,,2013-08-29 13:42:00,
2013-08-29 05:52:00,47.0,40.0,-100.00,NE,50,4.0,6.0,76,0.02,,,0.03,,2013-08-29 13:52:00,
2013-08-29 06:02:00,47.0,40.0,-100.00,NE,50,4.0,6.0,76,0.02,,,0.03,,2013-08-29 14:02:00,
2013-08-29 06:11:00,47.0,40.0,-100.00,NE,50,4.0,6.0,76,0.02,,,0.03,,2013-08-29 14:11:00,
2013-08-29 06:21:00,46.0,41.0,-100.00,NE,55,1.0,4.0,80,0.02,,,0.03,,2013-08-29 14:21:00,
2013-08-29 06:31:00,46.0,41.0,-100.00,NE,55,1.0,4.0,80,0.02,,,0.03,,2013-08-29 14:31:00,
2013-08-29 06:42:00,46.0,41.0,-100.00,NE,55,1.0,4.0,80,0.02,,,0.03,,2013-08-29 14:42:00,
2013-08-29 06:52:00,46.0,42.0,-100.00,NNE,15,2.0,3.0,84,0.02,,,0.04,,2013-08-29 14:52:00,
2013-08-29 07:02:00,46.0,42.0,-100.00,NNE,15,2.0,3.0,84,0.02,,,0.04,,2013-08-29 15:02:00,
2013-08-29 07:12:00,46.0,42.0,-100.00,NNE,15,2.0,3.0,84,0.02,,,0.04,,2013-08-29 15:12:00,
2013-08-29 07:21:00,46.0,42.0,-100.00,NNE,25,2.0,4.0,85,0.03,,,0.06,,2013-08-29 15:21:00,
2013-08-29 07:33:00,46.0,42.0,-100.00,NNE,25,2.0,4.0,85,0.03,,,0.06,,2013-08-29 15:33:00,
2013-08-29 07:43:00,46.0,42.0,-100.00,NNE,25,2.0,4.0,85,0.03,,,0.06,,2013-08-29 15:43:00,
2013-08-29 07:53:00,45.0,42.0,-100.00,North,5,2.0,4.0,87,0.02,,,0.06,,2013-08-29 15:53:00,
2013-08-29 08:04:00,45.0,42.0,-100.00,North,5,2.0,4.0,87,0.02,,,0.06,,2013-08-29 16:04:00,
2013-08-29 08:13:00,45.0,42.0,-100.00,North,5,2.0,4.0,87,0.02,,,0.06,,2013-08-29 16:13:00,
2013-08-29 08:24:00,45.0,42.0,-100.00,NNE,25,3.0,4.0,89,0.01,,,0.07,,2013-08-29 16:24:00,
2013-08-29 08:34:00,45.0,42.0,-100.00,NNE,25,3.0,4.0,89,0.01,,,0.07,,2013-08-29 16:34:00,
2013-08-29 08:43:00,45.0,42.0,-100.00,NNE,25,3.0,4.0,89,0.01,,,0.07,,2013-08-29 16:43:00,
2013-08-29 08:53:00,46.0,43.0,-100.00,North,0,4.0,6.0,89,0.01,,,0.07,,2013-08-29 16:53:00,
2013-08-29 09:03:00,46.0,43.0,-100.00,North,0,4.0,6.0,89,0.01,,,0.07,,2013-08-29 17:03:00,
2013-08-29 09:13:00,46.0,43.0,-100.00,North,0,4.0,6.0,89,0.01,,,0.07,,2013-08-29 17:13:00,
2013-08-29 09:22:00,45.0,43.0,-100.00,North,0,4.0,6.0,89,0.01,,,0.08,,2013-08-29 17:22:00,
2013-08-29 09:34:00,45.0,43.0,-100.00,North,0,4.0,6.0,89,0.01,,,0.08,,2013-08-29 17:34:00,
2013-08-29 09:43:00,45.0,43.0,-100.00,North,0,4.0,6.0,89,0.01,,,0.08,,2013-08-29 17:43:00,
2013-08-29 09:52:00,45.0,43.0,-100.00,NW,320,2.0,6.0,90,0.01,,,0.08,,2013-08-29 17:52:00,
2013-08-29 10:01:00,45.0,43.0,-100.00,NW,320,2.0,6.0,90,0.01,,,0.08,,2013-08-29 18:01:00,
2013-08-29 10:12:00,45.0,43.0,-100.00,NW,320,2.0,6.0,90,0.01,,,0.08,,2013-08-29 18:12:00,
2013-08-29 10:21:00,46.0,43.0,-100.00,North,0,3.0,6.0,90,0.00,,,0.08,,2013-08-29 18:21:00,
2013-08-29 10:32:00,46.0,43.0,-100.00,North,0,3.0,6.0,90,0.00,,,0.08,,2013-08-29 18:32:00,
2013-08-29 10:42:00,46.0,43.0,-100.00,North,0,3.0,6.0,90,0.00,,,0.08,,2013-08-29 18:42:00,
2013-08-29 10:52:00,45.0,43.0,-100.00,North,355,4.0,7.0,90,0.01,,,0.09,,2013-08-29 18:52:00,
2013-08-29 11:01:00,45.0,43.0,-100.00,North,355,4.0,7.0,90,0.01,,,0.09,,2013-08-29 19:01:00,
2013-08-29 11:11:00,45.0,43.0,-100.00,North,355,4.0,7.0,90,0.01,,,0.09,,2013-08-29 19:11:00,
2013-08-29 11:22:00,46.0,43.0,-100.00,North,0,4.0,7.0,90,0.01,,,0.09,,2013-08-29 19:22:00,
2013-08-29 11:32:00,46.0,43.0,-100.00,North,0,4.0,7.0,90,0.01,,,0.09,,2013-08-29 19:32:00,
2013-08-29 11:42:00,46.0,43.0,-100.00,North,0,4.0,7.0,90,0.01,,,0.09,,2013-08-29 19:42:00,
2013-08-29 11:52:00,46.0,43.0,-100.00,North,5,3.0,7.0,90,0.00,,,0.09,,2013-08-29 19:52:00,
2013-08-29 12:02:00,46.0,43.0,-100.00,North,5,3.0,7.0,90,0.00,,,0.09,,2013-08-29 20:02:00,
2013-08-29 12:12:00,46.0,43.0,-100.00,North,5,3.0,7.0,90,0.00,,,0.09,,2013-08-29 20:12:00,
2013-08-29 12:21:00,46.0,44.0,-100.00,North,0,4.0,7.0,90,0.00,,,0.09,,2013-08-29 20:21:00,
2013-08-29 12:32:00,46.0,44.0,-100.00,North,0,4.0,7.0,90,0.00,,,0.09,,2013-08-29 20:32:00,
2013-08-29 12:42:00,46.0,44.0,-100.00,North,0,4.0,7.0,90,0.00,,,0.09,,2013-08-29 20:42:00,
2013-08-29 12:52:00,47.0,44.0,-100.00,North,355,4.0,7.0,90,0.00,,,0.09,,2013-08-29 20:52:00,
2013-08-29 13:01:00,47.0,44.0,-100.00,North,355,4.0,7.0,90,0.00,,,0.09,,2013-08-29 21:01:00,
2013-08-29 13:12:00,47.0,44.0,-100.00,North,355,4.0,7.0,90,0.00,,,0.09,,2013-08-29 21:12:00,
2013-08-29 13:22:00,47.0,44.0,-100.00,North,0,4.0,6.0,90,0.00,,,0.09,,2013-08-29 21:22:00,
2013-08-29 13:33:00,47.0,44.0,-100.00,North,0,4.0,6.0,90,0.00,,,0.09,,2013-08-29 21:33:00,
2013-08-29 13:44:00,47.0,44.0,-100.00,North,0,4.0,6.0,90,0.00,,,0.09,,2013-08-29 21:44:00,
2013-08-29 13:54:00,47.0,44.0,-100.00,North,0,3.0,7.0,90,0.00,,,0.09,,2013-08-29 21:54:00,
2013-08-29 14:04:00,47.0,44.0,-100.00,North,0,3.0,7.0,90,0.00,,,0.09,,2013-08-29 22:04:00,
2013-08-29 14:14:00,47.0,44.0,-100.00,North,0,3.0,7.0,90,0.00,,,0.09,,2013-08-29 22:14:00,
2013-08-29 14:24:00,47.0,44.0,-100.00,North,0,4.0,7.0,90,0.00,,,0.09,,2013-08-29 22:24:00,
2013-08-29 14:33:00,47.0,44.0,-100.00,North,0,4.0,7.0,90,0.00,,,0.09,,2013-08-29 22:33:00,
2013-08-29 14:43:00,47.0,44.0,-100.00,North,0,4.0,7.0,90,0.00,,,0.09,,2013-08-29 22:43:00,
2013-08-29 14:53:00,47.0,44.0,-100.00,North,0,4.0,8.0,90,0.01,,,0.10,,2013-08-29 22:53:00,
2013-08-29 15:03:00,47.0,44.0,-100.00,North,0,4.0,8.0,90,0.01,,,0.10,,2013-08-29 23:03:00,
2013-08-29 15:13:00,47.0,44.0,-100.00,North,0,4.0,8.0,90,0.01,,,0.10,,2013-08-29 23:13:00,
2013-08-29 15:22:00,47.0,44.0,-100.00,North,0,3.0,7.0,90,0.01,,,0.10,,2013-08-29 23:22:00,
2013-08-29 15:33:00,47.0,44.0,-100.00,North,0,3.0,7.0,90,0.01,,,0.10,,2013-08-29 23:33:00,
2013-08-29 15:42:00,47.0,44.0,-100.00,North,0,3.0,7.0,90,0.01,,,0.10,,2013-08-29 23:42:00,
2013-08-29 15:53:00,47.0,44.0,-100.00,North,0,3.0,6.0,90,0.01,,,0.11,,2013-08-29 23:53:00,
2013-08-29 16:02:00,47.0,44.0,-100.00,North,0,3.0,6.0,90,0.01,,,0.11,,2013-08-30 00:02:00,
2013-08-29 16:12:00,47.0,44.0,-100.00,North,0,3.0,6.0,90,0.01,,,0.11,,2013-08-30 00:12:00,
2013-08-29 16:21:00,47.0,44.0,-100.00,North,350,1.0,6.0,90,0.01,,,0.11,,2013-08-30 00:21:00,
2013-08-29 16:32:00,47.0,44.0,-100.00,North,350,1.0,6.0,90,0.01,,,0.11,,2013-08-30 00:32:00,
2013-08-29 16:42:00,47.0,44.0,-100.00,North,350,1.0,6.0,90,0.01,,,0.11,,2013-08-30 00:42:00,
2013-08-29 16:52:00,47.0,44.0,-100.00,North,10,4.0,7.0,90,0.01,,,0.12,,2013-08-30 00:52:00,
2013-08-29 17:01:00,47.0,44.0,-100.00,North,10,4.0,7.0,90,0.01,,,0.12,,2013-08-30 01:01:00,
2013-08-29 17:12:00,47.0,44.0,-100.00,North,10,4.0,7.0,90,0.01,,,0.12,,2013-08-30 01:12:00,
2013-08-29 17:21:00,47.0,44.0,-100.00,North,5,2.0,7.0,90,0.02,,,0.13,,2013-08-30 01:21:00,
2013-08-29 17:32:00,47.0,44.0,-100.00,North,5,2.0,7.0,90,0.02,,,0.13,,2013-08-30 01:32:00,
2013-08-29 17:42:00,47.0,44.0,-100.00,North,5,2.0,7.0,90,0.02,,,0.13,,2013-08-30 01:42:00,
2013-08-29 17:52:00,47.0,44.0,-100.00,North,0,4.0,7.0,90,0.02,,,0.14,,2013-08-30 01:52:00,
2013-08-29 18:02:00,47.0,44.0,-100.00,North,0,4.0,7.0,90,0.02,,,0.14,,2013-08-30 02:02:00,
2013-08-29 18:11:00,47.0,44.0,-100.00,North,0,4.0,7.0,90,0.02,,,0.14,,2013-08-30 02:11:00,
2013-08-29 18:21:00,47.0,44.0,-100.00,NW,310,2.0,6.0,90,0.02,,,0.15,,2013-08-30 02:21:00,
2013-08-29 18:32:00,47.0,44.0,-100.00,NW,310,2.0,6.0,90,0.02,,,0.15,,2013-08-30 02:32:00,
2013-08-29 18:42:00,47.0,44.0,-100.00,NW,310,2.0,6.0,90,0.02,,,0.15,,2013-08-30 02:42:00,
2013-08-29 18:52:00,47.0,44.0,-100.00,NW,320,3.0,6.0,90,0.01,,,0.15,,2013-08-30 02:52:00,
2013-08-29 19:02:00,47.0,44.0,-100.00,NW,320,3.0,6.0,90,0.01,,,0.15,,2013-08-30 03:02:00,
2013-08-29 19:12:00,47.0,44.0,-100.00,NW,320,3.0,6.0,90,0.01,,,0.15,,2013-08-30 03:12:00,
2013-08-29 19:22:00,47.0,44.0,-100.00,NNW,330,4.0,6.0,90,0.01,,,0.16,,2013-08-30 03:22:00,
2013-08-29 19:34:00,47.0,44.0,-100.00,NNW,330,4.0,6.0,90,0.01,,,0.16,,2013-08-30 03:34:00,
2013-08-29 19:43:00,47.0,44.0,-100.00,NNW,330,4.0,6.0,90,0.01,,,0.16,,2013-08-30 03:43:00,
2013-08-29 19:54:00,47.0,44.0,-100.00,North,0,3.0,6.0,90,0.01,,,0.16,,2013-08-30 03:54:00,
2013-08-29 20:04:00,47.0,44.0,-100.00,North,0,3.0,6.0,90,0.01,,,0.16,,2013-08-30 04:04:00,
2013-08-29 20:14:00,47.0,44.0,-100.00,North,0,3.0,6.0,90,0.01,,,0.16,,2013-08-30 04:14:00,
2013-08-29 20:24:00,46.0,44.0,-100.00,NNW,340,3.0,7.0,90,0.00,,,0.16,,2013-08-30 04:24:00,
2013-08-29 20:33:00,46.0,44.0,-100.00,NNW,340,3.0,7.0,90,0.00,,,0.16,,2013-08-30 04:33:00,
2013-08-29 20:44:00,46.0,44.0,-100.00,NNW,340,3.0,7.0,90,0.00,,,0.16,,2013-08-30 04:44:00,
2013-08-29 20:54:00,46.0,43.0,-100.00,NNW,335,2.0,4.0,90,0.01,,,0.17,,2013-08-30 04:54:00,
2013-08-29 21:03:00,46.0,43.0,-100.00,NNW,335,2.0,4.0,90,0.01,,,0.17,,2013-08-30 05:03:00,
2013-08-29 21:12:00,46.0,43.0,-100.00,NNW,335,2.0,4.0,90,0.01,,,0.17,,2013-08-30 05:12:00,
2013-08-29 21:23:00,46.0,43.0,-100.00,North,0,2.0,4.0,90,0.01,,,0.17,,2013-08-30 05:23:00,
2013-08-29 21:34:00,46.0,43.0,-100.00,North,0,2.0,4.0,90,0.01,,,0.17,,2013-08-30 05:34:00,
2013-08-29 21:42:00,46.0,43.0,-100.00,North,0,2.0,4.0,90,0.01,,,0.17,,2013-08-30 05:42:00,
2013-08-29 21:52:00,45.0,43.0,-100.00,NNW,345,1.0,3.0,90,0.00,,,0.17,,2013-08-30 05:52:00,
2013-08-29 22:02:00,45.0,43.0,-100.00,NNW,345,1.0,3.0,90,0.00,,,0.17,,2013-08-30 06:02:00,
2013-08-29 22:12:00,45.0,43.0,-100.00,NNW,345,1.0,3.0,90,0.00,,,0.17,,2013-08-30 06:12:00,
2013-08-29 22:22:00,45.0,43.0,-100.00,NW,320,1.0,2.0,90,0.00,,,0.17,,2013-08-30 06:22:00,
2013-08-29 22:32:00,45.0,43.0,-100.00,NW,320,1.0,2.0,90,0.00,,,0.17,,2013-08-30 06:32:00,
2013-08-29 22:42:00,45.0,43.0,-100.00,NW,320,1.0,2.0,90,0.00,,,0.17,,2013-08-30 06:42:00,
2013-08-29 22:53:00,45.0,42.0,-100.00,NW,310,2.0,5.0,90,0.01,,,0.18,,2013-08-30 06:53:00,
2013-08-29 23:02:00,45.0,42.0,-100.00,NW,310,2.0,5.0,90,0.01,,,0.18,,2013-08-30 07:02:00,
2013-08-29 23:12:00,45.0,42.0,-100.00,NW,310,2.0,5.0,90,0.01,,,0.18,,2013-08-30 07:12:00,
2013-08-29 23:21:00,45.0,43.0,-100.00,West,280,2.0,4.0,90,0.01,,,0.18,,2013-08-30 07:21:00,
2013-08-29 23:31:00,45.0,43.0,-100.00,West,280,2.0,4.0,90,0.01,,,0.18,,2013-08-30 07:31:00,
2013-08-29 23:43:00,45.0,43.0,-100.00,West,280,2.0,4.0,90,0.01,,,0.18,,2013-08-30 07:43:00,
2013-08-29 23:53:00,45.0,43.0,-100.00,NW,315,3.0,4.0,90,0.00,,,0.18,,2013-08-30 07:53:00,